Mildred, Pennsylvania
Current Conditions -  °F | °C
As of 1:43 PM on Monday 26 Jan 2015 (Local Time) from KIPT Reporting Station
Light Snow Light Snow  
Wind Chill: 23°   Ceiling: 1900
Heat Index: 23°   Visibility: 1.5mi
Dew Point: 19°   Wind: 3mph
Humidity: 85%   Direction: 130°SE
Pressure: 29.83"   Gusts: NA
Location:  41.48°N, 76.38°W
Report Text: KIPT 261843Z 13003KT 1 1/2SM -SN BR BKN019 BKN027 OVC032 M05/M07 A2983 RMK AO2 P0001 T10501072
Loading
Personal Weather Stations






























Interactive Weather Map New forecast layout! Learn more

10-Day Weather Forecast

Advertisements
Track Severe Weather on mobile